createdAt,value
2022-09-26T02:37:04.105Z,998.98
2022-09-26T02:38:04.059Z,998.95
2022-09-26T02:39:04.035Z,998.90
2022-09-26T02:40:04.027Z,998.92
2022-09-26T02:41:04.011Z,998.87
2022-09-26T02:42:03.997Z,998.86
2022-09-26T02:43:04.006Z,998.87
2022-09-26T02:44:03.984Z,998.89
2022-09-26T02:45:03.969Z,998.73
2022-09-26T02:46:03.992Z,998.83
2022-09-26T02:47:03.946Z,998.83
2022-09-26T02:48:08.988Z,998.84
2022-09-26T02:49:03.928Z,998.80
2022-09-26T02:50:03.908Z,998.76
2022-09-26T02:51:04.621Z,998.74
2022-09-26T02:52:03.886Z,998.76
2022-09-26T02:53:03.909Z,998.71
2022-09-26T02:54:03.878Z,998.67
2022-09-26T02:55:03.864Z,998.66
2022-09-26T02:56:03.850Z,998.71
2022-09-26T02:57:03.853Z,998.68
2022-09-26T02:58:03.854Z,998.60
2022-09-26T02:59:08.892Z,998.67
2022-09-26T03:00:03.798Z,998.57
2022-09-26T03:01:03.870Z,998.51
2022-09-26T03:02:03.777Z,998.50
2022-09-26T03:03:03.781Z,998.51
2022-09-26T03:04:03.782Z,998.49
2022-09-26T03:05:03.832Z,998.44
2022-09-26T03:06:03.731Z,998.41
2022-09-26T03:07:03.721Z,998.42
2022-09-26T03:08:03.715Z,998.43
2022-09-26T03:09:03.741Z,998.40
2022-09-26T03:10:08.712Z,998.40
2022-09-26T03:11:03.676Z,998.41
2022-09-26T03:12:03.668Z,998.37
2022-09-26T03:13:03.668Z,998.33
2022-09-26T03:14:03.657Z,998.30
2022-09-26T03:15:03.638Z,998.32
2022-09-26T03:16:03.696Z,998.27
2022-09-26T03:17:03.616Z,998.31
2022-09-26T03:18:03.605Z,998.29
2022-09-26T03:19:03.626Z,998.32
2022-09-26T03:20:03.588Z,998.28
2022-09-26T03:21:08.587Z,998.29
2022-09-26T03:22:03.552Z,998.27
2022-09-26T03:23:03.549Z,998.28
2022-09-26T03:24:03.545Z,998.30
2022-09-26T03:25:03.541Z,998.24
2022-09-26T03:26:03.506Z,998.33
2022-09-26T03:27:03.506Z,998.26
2022-09-26T03:28:03.493Z,998.28
2022-09-26T03:29:03.494Z,998.28
2022-09-26T03:30:03.473Z,998.26
2022-09-26T03:31:03.471Z,998.28
2022-09-26T03:32:08.562Z,998.26
2022-09-26T03:33:03.439Z,998.24
2022-09-26T03:34:03.440Z,998.23
2022-09-26T03:35:03.412Z,998.21
2022-09-26T03:36:03.400Z,998.18
2022-09-26T03:37:03.391Z,998.23
2022-09-26T03:38:03.390Z,998.17
2022-09-26T03:39:03.399Z,998.20
2022-09-26T03:40:03.356Z,998.17
2022-09-26T03:41:03.468Z,998.11
2022-09-26T03:42:03.330Z,998.23
2022-09-26T03:43:08.350Z,998.12
2022-09-26T03:44:03.330Z,998.07
2022-09-26T03:45:03.414Z,998.08
2022-09-26T03:46:03.506Z,998.04
2022-09-26T03:47:03.295Z,998.03
2022-09-26T03:48:03.266Z,998.04
2022-09-26T03:49:03.266Z,998.00
2022-09-26T03:50:03.240Z,997.99
2022-09-26T03:51:03.231Z,997.94
2022-09-26T03:52:03.225Z,997.91
2022-09-26T03:53:03.203Z,997.89
2022-09-26T03:54:08.230Z,997.98
2022-09-26T03:55:03.183Z,997.94
2022-09-26T03:56:03.180Z,997.93
2022-09-26T03:57:03.183Z,998.01
2022-09-26T03:58:03.167Z,997.96
2022-09-26T03:59:03.169Z,997.96
2022-09-26T04:00:03.131Z,997.95
2022-09-26T04:01:03.207Z,997.91
2022-09-26T04:02:03.172Z,997.89
2022-09-26T04:03:03.094Z,997.87
2022-09-26T04:04:03.113Z,997.85
2022-09-26T04:05:08.095Z,997.85
2022-09-26T04:06:03.070Z,997.82
2022-09-26T04:07:03.045Z,997.83
2022-09-26T04:08:03.097Z,997.82
2022-09-26T04:09:03.053Z,997.81
2022-09-26T04:10:03.014Z,997.76
2022-09-26T04:11:03.002Z,997.84
2022-09-26T04:12:03.008Z,997.78
2022-09-26T04:13:03.022Z,997.69
2022-09-26T04:14:02.982Z,997.70
2022-09-26T04:15:02.965Z,997.68
2022-09-26T04:16:08.038Z,997.64
2022-09-26T04:17:02.943Z,997.58
2022-09-26T04:18:02.931Z,997.62
2022-09-26T04:19:02.937Z,997.58
2022-09-26T04:20:02.919Z,997.60
2022-09-26T04:21:05.743Z,997.59
2022-09-26T04:22:03.909Z,997.65
2022-09-26T04:23:02.879Z,997.71
2022-09-26T04:24:02.879Z,997.68
2022-09-26T04:25:02.847Z,997.66
2022-09-26T04:26:02.837Z,997.72
2022-09-26T04:27:07.845Z,997.70
2022-09-26T04:28:02.823Z,997.69
2022-09-26T04:29:02.864Z,997.58
2022-09-26T04:30:02.807Z,997.67
2022-09-26T04:31:02.785Z,997.64
2022-09-26T04:32:02.849Z,997.58
2022-09-26T04:33:02.767Z,997.55
2022-09-26T04:34:02.768Z,997.50
2022-09-26T04:35:02.756Z,997.52
2022-09-26T04:36:02.739Z,997.53
2022-09-26T04:37:02.721Z,997.55
2022-09-26T04:38:07.731Z,997.56
2022-09-26T04:39:02.702Z,997.52
2022-09-26T04:40:02.700Z,997.50
2022-09-26T04:41:02.770Z,997.45
2022-09-26T04:42:02.667Z,997.43
2022-09-26T04:43:02.646Z,997.38
2022-09-26T04:44:02.635Z,997.36
2022-09-26T04:45:02.655Z,997.40
2022-09-26T04:46:02.688Z,997.39
2022-09-26T04:47:02.603Z,997.35
2022-09-26T04:48:02.604Z,997.35
2022-09-26T04:49:07.614Z,997.28
2022-09-26T04:50:02.580Z,997.31
2022-09-26T04:51:02.561Z,997.31
2022-09-26T04:52:02.554Z,997.26
2022-09-26T04:53:02.537Z,997.34
2022-09-26T04:54:02.528Z,997.31
2022-09-26T04:55:02.522Z,997.31
2022-09-26T04:56:02.511Z,997.24
2022-09-26T04:57:02.492Z,997.27
2022-09-26T04:58:02.488Z,997.28
2022-09-26T04:59:02.471Z,997.23
2022-09-26T05:00:07.506Z,997.23
2022-09-26T05:01:02.545Z,997.20
2022-09-26T05:02:02.561Z,997.18
2022-09-26T05:03:02.428Z,997.09
2022-09-26T05:04:02.415Z,997.17
2022-09-26T05:05:02.410Z,997.16
2022-09-26T05:06:02.392Z,997.15
2022-09-26T05:07:02.381Z,997.11
2022-09-26T05:08:02.374Z,997.19
2022-09-26T05:09:02.357Z,997.19
2022-09-26T05:10:02.361Z,997.17
2022-09-26T05:11:07.365Z,997.17
2022-09-26T05:12:02.338Z,997.21
2022-09-26T05:13:02.337Z,997.27
2022-09-26T05:14:02.303Z,997.24
2022-09-26T05:15:02.307Z,997.31
2022-09-26T05:16:02.368Z,997.17
2022-09-26T05:17:02.271Z,997.17
2022-09-26T05:18:02.270Z,997.22
2022-09-26T05:19:02.246Z,997.19
2022-09-26T05:20:02.255Z,997.09
2022-09-26T05:21:02.339Z,997.12
2022-09-26T05:22:07.237Z,997.14
2022-09-26T05:23:02.216Z,997.03
2022-09-26T05:24:02.194Z,997.05
2022-09-26T05:25:02.243Z,997.10
2022-09-26T05:26:02.202Z,997.07
2022-09-26T05:27:02.181Z,997.12
2022-09-26T05:28:02.167Z,997.08
2022-09-26T05:29:07.632Z,997.11
2022-09-26T05:30:03.154Z,997.08
2022-09-26T05:31:02.113Z,997.05
2022-09-26T05:32:02.269Z,997.01
2022-09-26T05:33:07.114Z,996.98
2022-09-26T05:34:02.083Z,997.04
2022-09-26T05:35:02.082Z,996.97
2022-09-26T05:36:02.068Z,996.99
2022-09-26T05:37:02.046Z,997.02
2022-09-26T05:38:02.037Z,997.02
2022-09-26T05:39:02.025Z,996.98
2022-09-26T05:40:02.024Z,996.96
2022-09-26T05:41:02.145Z,996.98
2022-09-26T05:42:01.996Z,996.97
2022-09-26T05:43:01.983Z,997.05
2022-09-26T05:44:07.004Z,996.95
2022-09-26T05:45:01.980Z,996.98
2022-09-26T05:46:01.962Z,996.89
2022-09-26T05:47:02.039Z,996.90
2022-09-26T05:48:01.948Z,996.84
2022-09-26T05:49:01.928Z,996.88
2022-09-26T05:50:01.908Z,996.91
2022-09-26T05:51:01.931Z,996.81
2022-09-26T05:52:01.883Z,996.89
2022-09-26T05:53:01.870Z,996.83
2022-09-26T05:54:01.867Z,996.83
2022-09-26T05:55:06.870Z,996.87
2022-09-26T05:56:02.309Z,996.83
2022-09-26T05:57:01.826Z,996.87
2022-09-26T05:58:01.821Z,996.84
2022-09-26T05:59:01.808Z,996.82
2022-09-26T06:00:01.849Z,996.81
2022-09-26T06:01:01.858Z,996.80
2022-09-26T06:02:01.839Z,996.78
2022-09-26T06:03:01.762Z,996.84
2022-09-26T06:04:01.775Z,996.80
2022-09-26T06:05:01.738Z,996.78
2022-09-26T06:06:06.765Z,996.73
2022-09-26T06:07:01.716Z,996.71
2022-09-26T06:08:01.708Z,996.72
2022-09-26T06:09:01.703Z,996.79
2022-09-26T06:10:01.683Z,996.69
2022-09-26T06:11:01.678Z,996.67
2022-09-26T06:12:01.659Z,996.66
2022-09-26T06:13:01.659Z,996.67
2022-09-26T06:14:01.659Z,996.62
2022-09-26T06:15:01.629Z,996.67
2022-09-26T06:16:01.696Z,996.59
2022-09-26T06:17:06.626Z,996.58
2022-09-26T06:18:01.597Z,996.57
2022-09-26T06:19:01.582Z,996.59
2022-09-26T06:20:01.606Z,996.55
2022-09-26T06:21:01.612Z,996.58
2022-09-26T06:22:01.550Z,996.60
2022-09-26T06:23:01.554Z,996.64
2022-09-26T06:24:01.531Z,996.61
2022-09-26T06:25:01.514Z,996.64
2022-09-26T06:26:01.521Z,996.60
2022-09-26T06:27:01.494Z,996.54
2022-09-26T06:28:06.505Z,996.57
2022-09-26T06:29:01.469Z,996.53
2022-09-26T06:30:01.484Z,996.55
2022-09-26T06:31:01.464Z,996.58
2022-09-26T06:32:01.524Z,996.60
2022-09-26T06:33:01.431Z,996.54
2022-09-26T06:34:01.428Z,996.58
2022-09-26T06:35:01.410Z,996.57
2022-09-26T06:36:01.428Z,996.59
2022-09-26T06:37:01.383Z,996.57
2022-09-26T06:38:01.377Z,996.57
2022-09-26T06:39:06.440Z,996.61
2022-09-26T06:40:01.350Z,996.54
2022-09-26T06:41:01.404Z,996.55
2022-09-26T06:42:01.333Z,996.53
2022-09-26T06:43:01.321Z,996.52
2022-09-26T06:44:01.324Z,996.47
2022-09-26T06:45:01.292Z,996.49
2022-09-26T06:46:01.295Z,996.51
2022-09-26T06:47:01.335Z,996.47
2022-09-26T06:48:01.260Z,996.50
2022-09-26T06:49:01.246Z,996.51
2022-09-26T06:50:06.262Z,996.48
2022-09-26T06:51:01.236Z,996.47
2022-09-26T06:52:01.233Z,996.50
2022-09-26T06:53:05.005Z,996.54
2022-09-26T06:54:02.257Z,996.46
2022-09-26T06:55:01.179Z,996.50
2022-09-26T06:56:01.193Z,996.49
2022-09-26T06:57:01.155Z,996.42
2022-09-26T06:58:01.152Z,996.47
2022-09-26T06:59:01.135Z,996.42
2022-09-26T07:00:01.128Z,996.39
2022-09-26T07:01:06.311Z,996.38
2022-09-26T07:02:01.203Z,996.38
2022-09-26T07:03:01.090Z,996.36
2022-09-26T07:04:01.153Z,996.36
2022-09-26T07:05:01.080Z,996.36
2022-09-26T07:06:01.093Z,996.34
2022-09-26T07:07:01.057Z,996.34
2022-09-26T07:08:01.052Z,996.32
2022-09-26T07:09:03.928Z,996.30
2022-09-26T07:10:01.014Z,996.36
2022-09-26T07:11:16.113Z,996.34
2022-09-26T07:12:14.539Z,996.33
2022-09-26T07:13:01.982Z,996.34
2022-09-26T07:14:00.974Z,996.37
2022-09-26T07:15:00.956Z,996.34
2022-09-26T07:16:00.997Z,996.35
2022-09-26T07:17:00.955Z,996.30
2022-09-26T07:18:00.927Z,996.30
2022-09-26T07:19:00.913Z,996.37
2022-09-26T07:20:00.900Z,996.41
2022-09-26T07:21:00.888Z,996.40
2022-09-26T07:22:00.892Z,996.35
2022-09-26T07:23:05.912Z,996.30
2022-09-26T07:24:00.855Z,996.36
2022-09-26T07:25:00.849Z,996.34
2022-09-26T07:26:00.835Z,996.39
2022-09-26T07:27:00.831Z,996.39
2022-09-26T07:28:00.831Z,996.37
2022-09-26T07:29:00.798Z,996.34
2022-09-26T07:30:00.792Z,996.35
2022-09-26T07:31:00.837Z,996.34
2022-09-26T07:32:00.815Z,996.34
2022-09-26T07:33:00.754Z,996.27
2022-09-26T07:34:05.869Z,996.22
2022-09-26T07:35:00.736Z,996.26
2022-09-26T07:36:05.061Z,996.22
2022-09-26T07:37:00.730Z,996.25
2022-09-26T07:38:00.700Z,996.25
2022-09-26T07:39:00.705Z,996.30
2022-09-26T07:40:01.799Z,996.27
2022-09-26T07:41:00.942Z,996.22
2022-09-26T07:42:00.671Z,996.18
2022-09-26T07:43:18.434Z,996.20
2022-09-26T07:44:59.368Z,996.25
2022-09-26T07:45:24.538Z,996.24
2022-09-26T07:46:01.608Z,996.16
2022-09-26T07:47:00.678Z,996.16
2022-09-26T07:48:00.589Z,996.17
2022-09-26T07:49:00.576Z,996.22
2022-09-26T07:50:00.566Z,996.32
2022-09-26T07:51:01.863Z,996.29
2022-09-26T07:52:00.552Z,996.15
2022-09-26T07:53:00.531Z,996.14
2022-09-26T07:54:00.521Z,996.16
2022-09-26T07:55:00.534Z,996.15
2022-09-26T07:56:05.524Z,996.11
2022-09-26T07:57:00.502Z,996.10
2022-09-26T07:58:00.479Z,996.14
2022-09-26T07:59:00.464Z,996.09
2022-09-26T08:00:00.462Z,996.11
2022-09-26T08:01:00.454Z,996.14
2022-09-26T08:02:00.486Z,996.08
2022-09-26T08:03:00.482Z,996.02
2022-09-26T08:04:00.415Z,996.02
2022-09-26T08:05:01.304Z,996.10
2022-09-26T08:06:00.391Z,995.98
2022-09-26T08:07:05.473Z,996.13
2022-09-26T08:08:00.369Z,996.12
2022-09-26T08:09:00.365Z,996.01
2022-09-26T08:10:00.345Z,996.00
2022-09-26T08:11:03.932Z,995.91
2022-09-26T08:12:00.358Z,995.93
2022-09-26T08:13:00.315Z,995.95
2022-09-26T08:14:00.299Z,995.97
2022-09-26T08:15:00.289Z,996.00
2022-09-26T08:16:00.330Z,995.94
2022-09-26T08:17:00.282Z,996.00
2022-09-26T08:18:05.275Z,995.92
2022-09-26T08:19:00.244Z,995.94
2022-09-26T08:20:00.242Z,995.88
2022-09-26T08:21:00.225Z,995.84
2022-09-26T08:22:00.233Z,995.84
2022-09-26T08:23:00.198Z,995.84
2022-09-26T08:24:00.198Z,995.88
2022-09-26T08:25:00.192Z,995.95
2022-09-26T08:26:00.177Z,995.85
2022-09-26T08:27:00.198Z,995.92
2022-09-26T08:28:00.172Z,995.85
2022-09-26T08:29:05.159Z,995.95
2022-09-26T08:30:00.179Z,995.92
2022-09-26T08:31:00.193Z,995.87
2022-09-26T08:32:00.111Z,995.89
2022-09-26T08:33:00.092Z,995.90
2022-09-26T08:34:00.077Z,995.89
2022-09-26T08:35:00.101Z,995.88
2022-09-26T08:36:00.054Z,995.82
2022-09-26T08:37:00.057Z,995.83
2022-09-26T08:38:00.035Z,995.90
2022-09-26T08:39:00.030Z,995.82
2022-09-26T08:40:05.031Z,995.80
2022-09-26T08:41:00.091Z,995.83
2022-09-26T08:42:00.029Z,995.78
2022-09-26T08:43:00.010Z,995.74
2022-09-26T08:43:59.969Z,995.82
2022-09-26T08:44:59.953Z,995.86
2022-09-26T08:45:59.947Z,995.81
2022-09-26T08:47:00.045Z,995.77
2022-09-26T08:47:59.918Z,995.80
2022-09-26T08:48:59.907Z,995.79
2022-09-26T08:49:59.895Z,995.78
2022-09-26T08:51:04.913Z,995.76
2022-09-26T08:51:59.946Z,995.75
2022-09-26T08:52:59.877Z,995.78
2022-09-26T08:53:59.852Z,995.77
2022-09-26T08:54:59.839Z,995.81
2022-09-26T08:55:59.828Z,995.73
2022-09-26T08:56:59.826Z,995.83
2022-09-26T08:57:59.809Z,995.79
2022-09-26T08:58:59.816Z,995.76
2022-09-26T08:59:59.821Z,995.85
2022-09-26T09:00:59.775Z,995.80
2022-09-26T09:02:04.913Z,995.76
2022-09-26T09:02:59.813Z,995.74
2022-09-26T09:03:59.735Z,995.73
2022-09-26T09:04:59.725Z,995.72
2022-09-26T09:05:59.750Z,995.72
2022-09-26T09:06:59.725Z,995.74
2022-09-26T09:07:59.757Z,995.81
2022-09-26T09:08:59.684Z,995.80
2022-09-26T09:09:59.688Z,995.73
2022-09-26T09:10:59.661Z,995.73
2022-09-26T09:11:59.662Z,995.69
2022-09-26T09:13:04.658Z,995.64
2022-09-26T09:13:59.621Z,995.64
2022-09-26T09:15:23.363Z,995.68
2022-09-26T09:16:00.676Z,995.59
2022-09-26T09:16:59.599Z,995.58
2022-09-26T09:17:59.588Z,995.64
2022-09-26T09:18:59.577Z,995.62
2022-09-26T09:19:59.550Z,995.60
2022-09-26T09:20:59.544Z,995.61
2022-09-26T09:21:59.550Z,995.54
2022-09-26T09:22:59.531Z,995.59
2022-09-26T09:24:04.529Z,995.56
2022-09-26T09:24:59.495Z,995.60
2022-09-26T09:27:52.380Z,995.55
2022-09-26T09:28:07.117Z,995.53
2022-09-26T09:29:00.451Z,995.50
2022-09-26T09:29:59.436Z,995.44
2022-09-26T09:30:59.558Z,995.48
2022-09-26T09:31:59.417Z,995.48
2022-09-26T09:32:59.439Z,995.45
2022-09-26T09:33:59.397Z,995.43
2022-09-26T09:35:04.405Z,995.44
2022-09-26T09:35:59.386Z,995.50
2022-09-26T09:36:59.372Z,995.50
2022-09-26T09:37:59.347Z,995.40
2022-09-26T09:38:59.341Z,995.44
2022-09-26T09:39:59.325Z,995.41
2022-09-26T09:40:59.402Z,995.39
2022-09-26T09:41:59.312Z,995.38
2022-09-26T09:42:59.301Z,995.38
2022-09-26T09:43:59.282Z,995.38
2022-09-26T09:44:59.271Z,995.47
2022-09-26T09:46:04.327Z,995.36
2022-09-26T09:46:59.358Z,995.34
2022-09-26T09:47:59.239Z,995.28
2022-09-26T09:48:59.227Z,995.34
2022-09-26T09:49:59.213Z,995.20
2022-09-26T09:50:59.204Z,995.19
2022-09-26T09:51:59.203Z,995.19
2022-09-26T09:52:59.182Z,995.19
2022-09-26T09:53:59.170Z,995.14
2022-09-26T09:54:59.159Z,995.11
2022-09-26T09:55:59.148Z,995.21
2022-09-26T09:57:04.171Z,995.15
2022-09-26T09:57:59.125Z,995.04
2022-09-26T09:58:59.116Z,995.07
2022-09-26T09:59:59.106Z,995.10
2022-09-26T10:00:59.097Z,995.11
2022-09-26T10:01:59.122Z,995.08
2022-09-26T10:02:59.131Z,995.04
2022-09-26T10:03:59.094Z,995.06
2022-09-26T10:04:59.051Z,995.10
2022-09-26T10:05:59.045Z,995.07
2022-09-26T10:06:59.028Z,995.01
2022-09-26T10:08:04.034Z,994.94
2022-09-26T10:08:59.020Z,994.91
2022-09-26T10:09:59.991Z,994.91
2022-09-26T10:10:58.991Z,994.95
2022-09-26T10:11:58.968Z,994.93
2022-09-26T10:12:58.960Z,994.91
2022-09-26T10:13:58.958Z,994.87
2022-09-26T10:14:58.937Z,994.86
2022-09-26T10:15:59.069Z,995.05
2022-09-26T10:16:58.913Z,994.90
2022-09-26T10:18:22.906Z,994.90
2022-09-26T10:19:04.968Z,994.86
2022-09-26T10:19:58.887Z,994.82
2022-09-26T10:20:58.874Z,994.91
2022-09-26T10:21:58.875Z,994.86
2022-09-26T10:22:58.853Z,994.92
2022-09-26T10:23:58.843Z,994.86
2022-09-26T10:24:58.829Z,994.76
2022-09-26T10:25:58.811Z,994.81
2022-09-26T10:26:58.811Z,994.88
2022-09-26T10:27:58.790Z,994.80
2022-09-26T10:28:58.779Z,994.75
2022-09-26T10:30:03.788Z,994.76
2022-09-26T10:30:58.860Z,994.76
2022-09-26T10:31:58.783Z,994.75
2022-09-26T10:32:58.737Z,994.85
2022-09-26T10:33:58.745Z,994.85
2022-09-26T10:34:58.714Z,994.69
2022-09-26T10:35:58.715Z,994.73
2022-09-26T10:36:58.706Z,994.70
2022-09-26T10:37:58.678Z,994.70
2022-09-26T10:38:58.668Z,994.70
2022-09-26T10:39:58.662Z,994.68
2022-09-26T10:41:03.875Z,994.72
2022-09-26T10:41:58.647Z,994.69
2022-09-26T10:42:58.628Z,994.65
2022-09-26T10:43:58.610Z,994.52
2022-09-26T10:44:58.600Z,994.62
2022-09-26T10:45:58.669Z,994.71
2022-09-26T10:46:58.718Z,994.60
2022-09-26T10:47:58.567Z,994.63
2022-09-26T10:48:58.561Z,994.64
2022-09-26T10:49:58.573Z,994.64
2022-09-26T10:50:58.536Z,994.56
2022-09-26T10:52:03.579Z,994.64
2022-09-26T10:52:58.512Z,994.69
2022-09-26T10:53:58.499Z,994.62
2022-09-26T10:54:58.489Z,994.66
2022-09-26T10:55:58.484Z,994.65
2022-09-26T10:56:58.477Z,994.62
2022-09-26T10:57:58.455Z,994.60
2022-09-26T10:58:58.448Z,994.62
2022-09-26T10:59:58.434Z,994.68
2022-09-26T11:00:58.423Z,994.65
2022-09-26T11:01:58.473Z,994.61
2022-09-26T11:03:03.421Z,994.58
2022-09-26T11:03:58.450Z,994.61
2022-09-26T11:04:58.377Z,994.67
2022-09-26T11:05:58.394Z,994.59
2022-09-26T11:06:58.370Z,994.52
2022-09-26T11:07:58.345Z,994.51
2022-09-26T11:08:58.339Z,994.61
2022-09-26T11:09:58.321Z,994.52
2022-09-26T11:10:58.313Z,994.53
2022-09-26T11:11:58.310Z,994.51
2022-09-26T11:12:58.289Z,994.48
2022-09-26T11:14:03.322Z,994.47
2022-09-26T11:14:58.270Z,994.41
2022-09-26T11:15:58.365Z,994.51
2022-09-26T11:16:58.252Z,994.48
2022-09-26T11:17:58.236Z,994.39
2022-09-26T11:18:58.223Z,994.41
2022-09-26T11:19:58.218Z,994.38
2022-09-26T11:20:58.199Z,994.35
2022-09-26T11:21:58.351Z,994.42
2022-09-26T11:22:58.180Z,994.22
2022-09-26T11:23:58.170Z,994.30
2022-09-26T11:25:03.179Z,994.32
2022-09-26T11:25:58.397Z,994.40
2022-09-26T11:26:58.145Z,994.24
2022-09-26T11:27:58.121Z,994.07
2022-09-26T11:28:58.110Z,994.14
2022-09-26T11:29:58.097Z,994.10
2022-09-26T11:30:58.227Z,994.06
2022-09-26T11:32:00.253Z,994.00
2022-09-26T11:32:58.066Z,994.02
2022-09-26T11:33:58.059Z,994.00
2022-09-26T11:34:58.052Z,994.06
2022-09-26T11:36:03.053Z,993.98
2022-09-26T11:36:58.036Z,994.04
2022-09-26T11:37:58.028Z,994.04
2022-09-26T11:38:58.026Z,993.97
2022-09-26T11:39:57.987Z,994.02
2022-09-26T11:40:58.078Z,994.05
2022-09-26T11:41:57.978Z,994.03
2022-09-26T11:42:57.955Z,993.94
2022-09-26T11:43:57.942Z,993.86
2022-09-26T11:44:57.940Z,993.82
2022-09-26T11:45:57.996Z,993.84
2022-09-26T11:47:02.952Z,993.72
2022-09-26T11:47:57.900Z,993.71
2022-09-26T11:48:57.889Z,993.78
2022-09-26T11:49:57.874Z,993.69
2022-09-26T11:50:57.863Z,993.66
2022-09-26T11:51:57.868Z,993.66
2022-09-26T11:52:57.844Z,993.72
2022-09-26T11:53:57.850Z,993.64
2022-09-26T11:54:57.819Z,993.66
2022-09-26T11:55:57.808Z,993.64
2022-09-26T11:56:57.820Z,993.65
2022-09-26T11:58:03.579Z,993.64
2022-09-26T11:58:57.804Z,993.53
2022-09-26T11:59:57.763Z,993.57
2022-09-26T12:00:57.766Z,993.49
2022-09-26T12:01:57.741Z,993.39
2022-09-26T12:02:57.856Z,993.44
2022-09-26T12:03:57.838Z,993.47
2022-09-26T12:04:57.708Z,993.41
2022-09-26T12:05:57.696Z,993.49
2022-09-26T12:06:57.685Z,993.49
2022-09-26T12:07:57.682Z,993.43
2022-09-26T12:09:02.749Z,993.46
2022-09-26T12:09:57.660Z,993.45
2022-09-26T12:10:57.645Z,993.34
2022-09-26T12:11:57.628Z,993.42
2022-09-26T12:12:57.638Z,993.32
2022-09-26T12:13:57.609Z,993.43
2022-09-26T12:14:57.600Z,993.28
2022-09-26T12:15:57.671Z,993.23
2022-09-26T12:16:57.574Z,993.18
2022-09-26T12:17:57.576Z,993.35
2022-09-26T12:18:57.554Z,993.28
2022-09-26T12:20:02.572Z,993.28
2022-09-26T12:20:57.533Z,993.14
2022-09-26T12:21:57.521Z,993.24
2022-09-26T12:22:57.518Z,993.17
2022-09-26T12:23:57.496Z,993.18
2022-09-26T12:24:57.503Z,993.08
2022-09-26T12:25:57.478Z,993.28
2022-09-26T12:26:57.461Z,993.09
2022-09-26T12:27:57.471Z,993.16
2022-09-26T12:28:57.441Z,993.13
2022-09-26T12:29:57.430Z,993.09
2022-09-26T12:31:02.531Z,992.99
2022-09-26T12:31:57.408Z,993.00
2022-09-26T12:32:57.406Z,992.99
2022-09-26T12:33:57.395Z,992.95
2022-09-26T12:34:57.371Z,992.89
2022-09-26T12:35:57.370Z,993.00
2022-09-26T12:36:57.350Z,992.94
2022-09-26T12:37:57.359Z,993.03
2022-09-26T12:38:57.331Z,992.95
2022-09-26T12:39:57.318Z,992.92
2022-09-26T12:40:57.392Z,992.98
2022-09-26T12:42:02.328Z,992.87
2022-09-26T12:42:57.286Z,992.87
2022-09-26T12:43:57.286Z,992.98
2022-09-26T12:44:57.260Z,992.91
2022-09-26T12:45:57.254Z,992.94
2022-09-26T12:46:57.299Z,992.91
2022-09-26T12:47:57.227Z,992.94
2022-09-26T12:48:57.225Z,992.90
2022-09-26T12:49:57.206Z,992.86
2022-09-26T12:50:57.197Z,992.84
2022-09-26T12:51:57.191Z,992.92
2022-09-26T12:53:02.212Z,992.93
2022-09-26T12:53:57.186Z,992.98
2022-09-26T12:54:57.148Z,992.99
2022-09-26T12:55:57.145Z,993.06
2022-09-26T12:56:57.144Z,993.07
2022-09-26T12:57:57.128Z,993.13
2022-09-26T12:58:57.105Z,993.15
2022-09-26T12:59:57.094Z,992.98
2022-09-26T13:00:57.082Z,992.92
2022-09-26T13:01:57.114Z,992.92
2022-09-26T13:02:57.133Z,992.88
2022-09-26T13:04:02.071Z,992.84
2022-09-26T13:04:57.044Z,992.83
2022-09-26T13:05:57.028Z,992.86
2022-09-26T13:07:17.777Z,992.83
2022-09-26T13:07:58.029Z,992.85
2022-09-26T13:08:57.015Z,992.78
2022-09-26T13:09:56.983Z,992.77
2022-09-26T13:10:56.971Z,992.83
2022-09-26T13:11:56.998Z,992.81
2022-09-26T13:12:56.982Z,992.79
2022-09-26T13:13:56.939Z,992.80
2022-09-26T13:15:01.947Z,992.79
2022-09-26T13:15:56.967Z,992.86
2022-09-26T13:16:56.902Z,992.88
2022-09-26T13:17:56.906Z,992.86
2022-09-26T13:18:56.880Z,992.82
2022-09-26T13:19:56.880Z,992.81
2022-09-26T13:20:56.859Z,992.89
2022-09-26T13:21:56.849Z,992.80
2022-09-26T13:22:56.838Z,992.81
2022-09-26T13:23:56.849Z,992.81
2022-09-26T13:24:56.821Z,992.77
2022-09-26T13:26:01.830Z,992.76
2022-09-26T13:26:56.791Z,992.68
2022-09-26T13:27:56.784Z,992.60
2022-09-26T13:29:16.120Z,992.62
2022-09-26T13:29:57.761Z,992.61
2022-09-26T13:30:56.819Z,992.59
2022-09-26T13:31:56.739Z,992.63
2022-09-26T13:32:56.728Z,992.60
2022-09-26T13:33:56.727Z,992.61
2022-09-26T13:34:56.704Z,992.53
2022-09-26T13:35:56.694Z,992.52
2022-09-26T13:37:01.703Z,992.43
2022-09-26T13:38:00.266Z,992.47
2022-09-26T13:38:57.669Z,992.48
2022-09-26T13:39:56.647Z,992.48
2022-09-26T13:40:56.704Z,992.40
2022-09-26T13:41:56.634Z,992.42
2022-09-26T13:43:02.186Z,992.45
2022-09-26T13:43:57.608Z,992.46
2022-09-26T13:44:56.614Z,992.43
2022-09-26T13:45:56.624Z,992.43
2022-09-26T13:46:56.849Z,992.37
2022-09-26T13:48:01.575Z,992.33
2022-09-26T13:48:56.551Z,992.36
2022-09-26T13:49:56.544Z,992.30
2022-09-26T13:50:56.516Z,992.30
2022-09-26T13:51:56.508Z,992.42
2022-09-26T13:52:56.493Z,992.39
2022-09-26T13:53:56.526Z,992.39
2022-09-26T13:54:56.482Z,992.30
2022-09-26T13:55:56.463Z,992.31
2022-09-26T13:56:56.448Z,992.32
2022-09-26T13:57:56.445Z,992.36
2022-09-26T13:59:01.470Z,992.23
2022-09-26T13:59:56.447Z,992.23
2022-09-26T14:00:56.444Z,992.28
2022-09-26T14:01:56.560Z,992.26
2022-09-26T14:02:57.807Z,992.14
2022-09-26T14:03:56.371Z,992.22
2022-09-26T14:04:56.369Z,992.09
2022-09-26T14:05:56.348Z,992.10
2022-09-26T14:06:56.336Z,992.11
2022-09-26T14:07:56.325Z,992.10
2022-09-26T14:08:56.312Z,992.04
2022-09-26T14:10:01.343Z,992.04
2022-09-26T14:10:56.287Z,992.09
2022-09-26T14:11:56.296Z,992.04
2022-09-26T14:12:56.265Z,992.06
2022-09-26T14:13:56.255Z,992.01
2022-09-26T14:14:56.253Z,992.05
2022-09-26T14:15:56.289Z,992.10
2022-09-26T14:16:56.240Z,992.07
2022-09-26T14:17:56.213Z,992.08
2022-09-26T14:18:56.195Z,992.01
2022-09-26T14:19:56.201Z,992.02
2022-09-26T14:21:01.204Z,992.01
2022-09-26T14:21:56.177Z,991.93
2022-09-26T14:22:56.163Z,991.92
2022-09-26T14:23:56.163Z,991.95
2022-09-26T14:24:56.137Z,991.91
2022-09-26T14:25:56.165Z,991.89
2022-09-26T14:26:56.103Z,991.95
2022-09-26T14:27:56.097Z,991.87
2022-09-26T14:28:56.084Z,991.88
2022-09-26T14:29:56.082Z,991.91
2022-09-26T14:30:56.129Z,991.88
2022-09-26T14:32:01.103Z,991.85
2022-09-26T14:32:56.050Z,991.88
2022-09-26T14:33:59.456Z,991.81
2022-09-26T14:34:56.031Z,991.78
2022-09-26T14:35:56.004Z,991.77
2022-09-26T14:36:55.989Z,991.75
2022-09-26T14:37:55.995Z,991.76
2022-09-26T14:38:55.971Z,991.75
2022-09-26T14:39:56.359Z,991.68
2022-09-26T14:40:56.057Z,991.69
2022-09-26T14:41:55.992Z,991.71
2022-09-26T14:43:00.945Z,991.74
2022-09-26T14:43:55.915Z,991.65
2022-09-26T14:44:55.904Z,991.68
2022-09-26T14:45:55.978Z,991.68
2022-09-26T14:46:55.878Z,991.64
2022-09-26T14:47:55.884Z,991.63
2022-09-26T14:48:55.856Z,991.63
2022-09-26T14:49:55.845Z,991.63
2022-09-26T14:50:55.844Z,991.58
2022-09-26T14:51:55.823Z,991.61
2022-09-26T14:52:55.810Z,991.53
2022-09-26T14:54:00.824Z,991.55
2022-09-26T14:54:55.791Z,991.55
2022-09-26T14:55:55.791Z,991.58
2022-09-26T14:56:55.786Z,991.55
2022-09-26T14:57:55.755Z,991.52
2022-09-26T14:58:55.743Z,991.49
2022-09-26T14:59:55.758Z,991.41
2022-09-26T15:00:55.718Z,991.47
2022-09-26T15:01:55.761Z,991.42
2022-09-26T15:03:00.799Z,991.40
2022-09-26T15:03:56.703Z,991.34
2022-09-26T15:05:00.702Z,991.34
2022-09-26T15:05:55.663Z,991.31